Time;durP1;ratioP1;P1;durP2;ratioP2;P2;SDS_P1;SDS_P2;PMS_P1;PMS_P2;Temp;Humidity;BMP_temperature;BMP_pressure;BME280_temperature;BME280_humidity;BME280_pressure;Samples;Min_cycle;Max_cycle;Signal;HPM_P1;HPM_P2
2022/11/22 00:00:28;;;;;;;20.35;9.60;;;7.40;99.90;;;;;;4990501;28;20547;-70
2022/11/22 00:02:54;;;;;;;20.33;10.05;;;7.40;99.90;;;;;;4977136;28;20022;-70
2022/11/22 00:05:20;;;;;;;17.55;9.38;;;7.40;99.90;;;;;;4989253;28;20410;-69
2022/11/22 00:07:46;;;;;;;24.25;9.32;;;7.40;99.90;;;;;;4990868;28;20034;-70
2022/11/22 00:10:13;;;;;;;22.23;10.13;;;7.40;99.90;;;;;;4990825;28;20032;-69
2022/11/22 00:12:39;;;;;;;21.90;9.65;;;7.30;99.90;;;;;;4990671;28;20450;-69
2022/11/22 00:15:06;;;;;;;23.67;9.35;;;7.30;99.90;;;;;;4989660;28;20023;-69
2022/11/22 00:17:32;;;;;;;23.50;9.45;;;7.30;99.90;;;;;;4990880;28;20073;-70
2022/11/22 00:19:58;;;;;;;21.95;9.57;;;7.30;99.90;;;;;;4989436;28;20030;-70
2022/11/22 00:22:24;;;;;;;21.33;9.13;;;7.20;99.90;;;;;;4991232;28;20023;-70
2022/11/22 00:24:51;;;;;;;21.48;8.80;;;7.20;99.90;;;;;;4977922;28;20022;-69
2022/11/22 00:27:17;;;;;;;26.38;9.30;;;7.20;99.90;;;;;;4988173;28;20035;-70
2022/11/22 00:29:43;;;;;;;29.70;9.40;;;7.20;99.90;;;;;;4989011;28;20502;-69
2022/11/22 00:32:08;;;;;;;21.25;9.38;;;7.20;99.90;;;;;;4993361;28;20026;-69
2022/11/22 00:34:34;;;;;;;24.63;9.55;;;7.20;99.90;;;;;;4994683;28;20023;-70
2022/11/22 00:36:59;;;;;;;20.63;9.25;;;7.20;99.90;;;;;;4994393;28;20418;-70
2022/11/22 00:39:25;;;;;;;23.55;9.65;;;7.20;99.90;;;;;;4994733;28;20088;-69
2022/11/22 00:41:50;;;;;;;21.45;8.45;;;7.20;99.90;;;;;;4994187;28;20026;-69
2022/11/22 00:44:16;;;;;;;23.77;9.05;;;7.20;99.90;;;;;;4987644;28;20030;-69
2022/11/22 00:46:41;;;;;;;22.35;9.02;;;7.20;99.90;;;;;;4992997;28;20030;-69
2022/11/22 00:49:07;;;;;;;23.10;8.48;;;7.20;99.90;;;;;;4991050;28;20054;-69
2022/11/22 00:51:32;;;;;;;24.85;8.25;;;7.20;99.90;;;;;;4991578;28;20487;-68
2022/11/22 00:53:58;;;;;;;19.15;8.23;;;7.20;99.90;;;;;;4992244;28;20058;-70
2022/11/22 00:56:24;;;;;;;17.70;8.13;;;7.20;99.90;;;;;;4986615;28;20034;-70
2022/11/22 00:58:49;;;;;;;21.73;7.57;;;7.20;99.90;;;;;;4981244;28;20034;-69
2022/11/22 01:01:15;;;;;;;25.92;7.80;;;7.20;99.90;;;;;;4992712;28;20631;-69
2022/11/22 01:03:40;;;;;;;24.80;7.43;;;7.20;99.90;;;;;;4994354;28;20048;-69
2022/11/22 01:06:06;;;;;;;24.38;7.60;;;7.10;99.90;;;;;;4993198;28;20450;-69
2022/11/22 01:08:31;;;;;;;21.83;7.38;;;7.10;99.90;;;;;;4981646;28;20035;-70
2022/11/22 01:10:58;;;;;;;26.85;6.97;;;7.10;99.90;;;;;;4993760;28;20109;-69
2022/11/22 01:13:25;;;;;;;22.75;6.82;;;7.10;99.90;;;;;;4993559;28;20089;-69
2022/11/22 01:15:51;;;;;;;25.50;6.63;;;7.00;99.90;;;;;;4988773;28;20382;-69
2022/11/22 01:18:16;;;;;;;21.73;6.55;;;7.00;99.90;;;;;;4993712;28;20259;-69
2022/11/22 01:20:42;;;;;;;19.30;5.78;;;7.00;99.90;;;;;;4987458;28;20474;-68
2022/11/22 01:23:08;;;;;;;25.10;6.43;;;7.00;99.90;;;;;;4993484;28;20029;-69
2022/11/22 01:25:33;;;;;;;17.40;6.20;;;6.90;99.90;;;;;;4989602;28;20080;-70
2022/11/22 01:27:59;;;;;;;16.27;5.80;;;6.90;99.90;;;;;;4981714;28;20514;-70
2022/11/22 01:30:24;;;;;;;18.70;5.25;;;6.90;99.90;;;;;;4993075;28;20034;-70
2022/11/22 01:32:50;;;;;;;21.45;5.70;;;6.90;99.90;;;;;;4993518;28;20037;-71
2022/11/22 01:35:15;;;;;;;17.10;4.38;;;6.90;99.90;;;;;;4993499;28;20046;-69
2022/11/22 01:37:41;;;;;;;18.95;4.60;;;6.90;99.90;;;;;;4987506;28;20065;-69
2022/11/22 01:40:08;;;;;;;25.77;4.85;;;6.90;99.90;;;;;;4986334;28;20054;-68
2022/11/22 01:42:50;;;;;;;17.77;4.50;;;6.90;99.90;;;;;;4990364;28;20042;-69
2022/11/22 01:45:31;;;;;;;21.90;4.05;;;6.90;99.90;;;;;;4991674;28;20129;-70
2022/11/22 01:48:12;;;;;;;16.75;3.75;;;6.90;99.90;;;;;;4986651;28;20027;-69
2022/11/22 01:50:41;;;;;;;26.50;4.45;;;6.90;99.90;;;;;;4987419;28;20089;-68
2022/11/22 01:53:13;;;;;;;20.63;4.30;;;6.90;99.90;;;;;;4973502;28;20034;-68
2022/11/22 01:55:40;;;;;;;21.80;3.80;;;6.90;99.90;;;;;;4989563;28;20486;-69
2022/11/22 01:58:08;;;;;;;20.27;3.60;;;6.90;99.90;;;;;;4993108;28;20126;-70
2022/11/22 02:00:34;;;;;;;30.40;4.20;;;6.90;99.90;;;;;;4992785;28;20101;-69
2022/11/22 02:03:02;;;;;;;17.27;3.70;;;6.90;99.90;;;;;;4992978;28;20030;-68
2022/11/22 02:05:33;;;;;;;25.45;4.03;;;6.90;99.90;;;;;;4992975;28;20387;-69
2022/11/22 02:08:04;;;;;;;18.83;3.50;;;6.90;99.90;;;;;;4992723;28;20084;-69
2022/11/22 02:10:36;;;;;;;18.45;4.18;;;6.90;99.90;;;;;;4992916;28;20049;-69
2022/11/22 02:13:02;;;;;;;22.33;4.15;;;6.90;99.90;;;;;;4992987;28;20037;-70
2022/11/22 02:15:28;;;;;;;18.70;4.10;;;6.80;99.90;;;;;;4993150;28;20035;-69
2022/11/22 02:17:56;;;;;;;24.45;4.10;;;6.80;99.90;;;;;;4992729;28;20448;-69
2022/11/22 02:20:22;;;;;;;26.88;4.60;;;6.80;99.90;;;;;;4992642;28;20030;-69
2022/11/22 02:22:58;;;;;;;20.75;4.20;;;6.80;99.90;;;;;;4980086;28;20434;-69
2022/11/22 02:25:30;;;;;;;16.58;3.28;;;6.80;99.90;;;;;;4992803;28;20033;-69
2022/11/22 02:27:56;;;;;;;22.13;4.18;;;6.70;99.90;;;;;;4992768;28;20034;-69
2022/11/22 02:30:21;;;;;;;21.58;3.75;;;6.70;99.90;;;;;;4992609;28;20089;-68
2022/11/22 02:32:47;;;;;;;21.58;4.25;;;6.70;99.90;;;;;;4992153;28;20399;-70
2022/11/22 02:35:18;;;;;;;26.15;3.75;;;6.70;99.90;;;;;;4992190;28;20478;-69
2022/11/22 02:37:44;;;;;;;23.92;4.00;;;6.70;99.90;;;;;;4991428;28;20030;-69
2022/11/22 02:40:13;;;;;;;20.85;3.78;;;6.60;99.90;;;;;;4985105;28;20517;-68
2022/11/22 02:42:41;;;;;;;25.00;3.85;;;6.60;99.90;;;;;;4988111;28;20038;-70
2022/11/22 02:45:07;;;;;;;16.83;3.42;;;6.70;99.90;;;;;;4979870;28;20104;-68
2022/11/22 02:47:32;;;;;;;18.73;3.30;;;6.60;99.90;;;;;;4990823;28;20030;-69
2022/11/22 02:49:58;;;;;;;29.52;3.78;;;6.70;99.90;;;;;;4991984;28;20020;-69
2022/11/22 02:52:23;;;;;;;24.60;4.22;;;6.70;99.90;;;;;;4989972;28;20026;-69
2022/11/22 02:54:49;;;;;;;30.95;4.15;;;6.70;99.90;;;;;;4984900;28;20042;-69
2022/11/22 02:57:15;;;;;;;25.65;3.67;;;6.70;99.90;;;;;;4992118;28;20235;-69
2022/11/22 02:59:40;;;;;;;17.95;3.70;;;6.70;99.90;;;;;;4991601;28;20391;-69
2022/11/22 03:02:06;;;;;;;17.83;3.53;;;6.70;99.90;;;;;;4987718;28;20023;-69
2022/11/22 03:04:31;;;;;;;23.92;3.95;;;6.70;99.90;;;;;;4979654;28;20030;-68
2022/11/22 03:06:58;;;;;;;15.98;3.38;;;6.70;99.90;;;;;;4979985;28;20030;-69
2022/11/22 03:09:25;;;;;;;18.63;3.58;;;6.80;99.90;;;;;;4991506;28;20033;-69
2022/11/22 03:11:51;;;;;;;17.80;3.05;;;6.80;99.90;;;;;;4988009;28;20033;-69
2022/11/22 03:14:16;;;;;;;22.95;3.42;;;6.80;99.90;;;;;;4978772;28;20109;-69
2022/11/22 03:16:43;;;;;;;15.95;3.50;;;6.80;99.90;;;;;;4985039;28;20022;-69
2022/11/22 03:19:09;;;;;;;16.20;3.10;;;6.80;99.90;;;;;;4989842;28;20062;-69
2022/11/22 03:21:35;;;;;;;14.75;2.80;;;6.80;99.90;;;;;;4989769;28;20054;-69
2022/11/22 03:24:00;;;;;;;16.23;3.30;;;6.80;99.90;;;;;;4981552;28;20077;-70
2022/11/22 03:26:26;;;;;;;22.58;3.30;;;6.80;99.90;;;;;;4985455;28;20038;-69
2022/11/22 03:28:51;;;;;;;19.33;3.97;;;6.80;99.90;;;;;;4982008;28;20093;-70
2022/11/22 03:31:17;;;;;;;14.68;3.10;;;6.80;99.90;;;;;;4983573;28;20061;-69
2022/11/22 03:33:42;;;;;;;18.55;3.13;;;6.70;99.90;;;;;;4982604;28;20390;-69
2022/11/22 03:36:08;;;;;;;18.80;2.65;;;6.70;99.90;;;;;;4985223;28;20041;-69
2022/11/22 03:38:34;;;;;;;20.08;3.35;;;6.70;99.90;;;;;;4990744;28;20053;-70
2022/11/22 03:41:00;;;;;;;13.40;2.63;;;6.60;99.90;;;;;;4978000;28;20035;-69
2022/11/22 03:43:25;;;;;;;16.13;3.28;;;6.60;99.90;;;;;;4986133;28;20093;-69
2022/11/22 03:45:51;;;;;;;13.32;2.90;;;6.60;99.90;;;;;;4979775;28;20046;-68
2022/11/22 03:48:17;;;;;;;12.80;2.50;;;6.60;99.90;;;;;;4985770;28;20525;-69
2022/11/22 03:50:43;;;;;;;14.70;2.80;;;6.50;99.90;;;;;;4989467;28;20055;-69
2022/11/22 03:53:09;;;;;;;15.65;2.80;;;6.50;99.90;;;;;;4979316;28;20069;-69
2022/11/22 03:55:34;;;;;;;17.17;3.05;;;6.50;99.90;;;;;;4985577;28;20397;-69
2022/11/22 03:58:00;;;;;;;17.00;3.20;;;6.40;99.90;;;;;;4980791;28;20109;-69
2022/11/22 04:00:26;;;;;;;14.68;2.75;;;6.40;99.90;;;;;;4987012;28;20043;-70
2022/11/22 04:02:51;;;;;;;15.27;2.80;;;6.40;99.90;;;;;;4987035;28;20057;-70
2022/11/22 04:05:17;;;;;;;14.50;2.80;;;6.40;99.90;;;;;;4990151;28;20031;-69
2022/11/22 04:07:43;;;;;;;17.20;3.30;;;6.30;99.90;;;;;;4973926;28;20495;-69
2022/11/22 04:10:08;;;;;;;14.57;2.88;;;6.30;99.90;;;;;;4975137;28;20034;-69
2022/11/22 04:12:34;;;;;;;12.70;3.13;;;6.30;99.90;;;;;;4988945;28;20057;-69
2022/11/22 04:15:06;;;;;;;16.13;3.03;;;6.20;99.90;;;;;;4990560;28;20105;-69
2022/11/22 04:17:40;;;;;;;17.52;2.83;;;6.20;99.90;;;;;;4985748;28;20108;-69
2022/11/22 04:22:56;;;;;;;14.57;2.97;;;6.20;99.90;;;;;;4988898;28;20114;-69
2022/11/22 04:25:23;;;;;;;16.02;2.38;;;6.10;99.90;;;;;;4977492;28;20410;-72
2022/11/22 04:27:49;;;;;;;19.00;3.47;;;6.10;99.90;;;;;;4989000;28;20389;-69
2022/11/22 04:30:14;;;;;;;9.80;2.45;;;6.10;99.90;;;;;;4974292;28;20472;-70
2022/11/22 04:32:46;;;;;;;15.32;3.58;;;6.20;99.90;;;;;;4987285;28;20483;-69
2022/11/22 04:35:17;;;;;;;13.82;2.53;;;6.10;99.90;;;;;;4985416;28;20038;-69
2022/11/22 04:37:50;;;;;;;19.60;2.83;;;6.20;99.90;;;;;;4974753;28;20415;-69
2022/11/22 04:40:16;;;;;;;15.57;2.42;;;6.20;99.90;;;;;;4988165;28;20030;-70
2022/11/22 04:45:25;;;;;;;18.23;2.70;;;6.20;99.90;;;;;;4977856;28;20077;-70
2022/11/22 04:48:00;;;;;;;14.57;2.72;;;6.20;99.90;;;;;;4981802;28;20066;-69
2022/11/22 04:53:11;;;;;;;17.10;2.90;;;6.30;99.90;;;;;;4991123;28;20169;-69
2022/11/22 04:55:37;;;;;;;16.73;2.92;;;6.30;99.90;;;;;;4990367;28;20121;-69
2022/11/22 04:58:03;;;;;;;16.63;2.97;;;6.30;99.90;;;;;;4990264;28;20027;-70
2022/11/22 05:00:29;;;;;;;17.05;2.42;;;6.30;99.90;;;;;;4987350;28;20026;-70
2022/11/22 05:02:56;;;;;;;15.05;2.30;;;6.30;99.90;;;;;;4990427;28;20037;-69
2022/11/22 05:05:22;;;;;;;13.00;2.83;;;6.30;99.90;;;;;;4990181;28;20566;-70
2022/11/22 05:07:48;;;;;;;13.50;2.50;;;6.30;99.90;;;;;;4990464;28;20035;-70
2022/11/22 05:10:14;;;;;;;17.38;3.10;;;6.30;99.90;;;;;;4988449;28;20360;-70
2022/11/22 05:12:40;;;;;;;13.15;2.63;;;6.30;99.90;;;;;;4990669;28;20440;-69
2022/11/22 05:15:06;;;;;;;10.45;2.97;;;6.30;99.90;;;;;;4981180;28;20023;-70
2022/11/22 05:17:32;;;;;;;15.15;2.92;;;6.30;99.90;;;;;;4987089;28;20106;-69
2022/11/22 05:19:57;;;;;;;12.70;3.20;;;6.30;99.90;;;;;;4987577;28;20456;-69
2022/11/22 05:25:10;;;;;;;14.38;3.05;;;6.30;99.90;;;;;;4985094;28;20076;-70
2022/11/22 05:27:36;;;;;;;15.07;3.63;;;6.30;99.90;;;;;;4981499;28;20506;-69
2022/11/22 05:30:03;;;;;;;9.73;3.25;;;6.30;99.90;;;;;;4984954;28;20101;-71
2022/11/22 05:32:30;;;;;;;13.45;3.08;;;6.30;99.90;;;;;;4988000;28;20023;-69
2022/11/22 05:34:56;;;;;;;13.55;3.50;;;6.30;99.90;;;;;;4984592;28;20022;-70
2022/11/22 05:37:22;;;;;;;14.90;3.00;;;6.20;99.90;;;;;;4992616;28;20038;-69
2022/11/22 05:39:47;;;;;;;14.50;3.00;;;6.20;99.90;;;;;;4989714;28;20033;-69
2022/11/22 05:42:13;;;;;;;10.93;2.60;;;6.20;99.90;;;;;;4991152;28;20030;-70
2022/11/22 05:44:38;;;;;;;16.50;3.15;;;6.20;99.90;;;;;;4993092;28;20042;-70
2022/11/22 05:47:04;;;;;;;15.45;3.00;;;6.20;99.90;;;;;;4985698;28;20022;-70
2022/11/22 05:49:30;;;;;;;13.77;3.63;;;6.20;99.90;;;;;;4991914;28;20037;-69
2022/11/22 05:51:55;;;;;;;15.38;3.65;;;6.10;99.90;;;;;;4993438;28;20033;-69
2022/11/22 05:54:21;;;;;;;19.15;4.28;;;6.20;99.90;;;;;;4993319;28;20014;-69
2022/11/22 05:56:47;;;;;;;15.82;3.90;;;6.20;99.90;;;;;;4993198;28;20018;-69
2022/11/22 05:59:13;;;;;;;13.35;4.45;;;6.10;99.90;;;;;;4989102;28;20023;-70
2022/11/22 06:01:39;;;;;;;15.77;5.10;;;6.10;99.90;;;;;;4992276;28;20023;-69
2022/11/22 06:04:05;;;;;;;18.73;4.80;;;6.10;99.90;;;;;;4992822;28;20022;-69
2022/11/22 06:06:30;;;;;;;16.58;5.28;;;6.20;99.90;;;;;;4982655;28;20034;-70
2022/11/22 06:08:58;;;;;;;17.10;6.05;;;6.20;99.90;;;;;;4989224;28;20023;-69
2022/11/22 06:11:25;;;;;;;11.73;5.18;;;6.20;99.90;;;;;;4992248;28;20027;-69
2022/11/22 06:13:56;;;;;;;17.17;5.85;;;6.20;99.90;;;;;;4992547;28;20063;-69
2022/11/22 06:16:22;;;;;;;11.35;6.03;;;6.20;99.90;;;;;;4983866;28;20034;-69
2022/11/22 06:18:48;;;;;;;17.27;5.93;;;6.20;99.90;;;;;;4991790;28;20410;-70
2022/11/22 06:21:16;;;;;;;18.08;6.32;;;6.20;99.90;;;;;;4990076;28;20023;-70
2022/11/22 06:23:42;;;;;;;17.77;6.28;;;6.20;99.90;;;;;;4989702;28;20498;-70
2022/11/22 06:26:13;;;;;;;21.05;6.38;;;6.20;99.90;;;;;;4984247;28;20031;-70
2022/11/22 06:28:39;;;;;;;15.32;6.13;;;6.20;99.90;;;;;;4991916;28;20038;-70
2022/11/22 06:31:16;;;;;;;15.52;5.70;;;6.10;99.90;;;;;;4990356;28;20473;-69
2022/11/22 06:33:43;;;;;;;15.93;6.00;;;6.10;99.90;;;;;;4992839;28;20101;-69
2022/11/22 06:36:11;;;;;;;13.85;5.80;;;6.10;99.90;;;;;;4992605;28;20022;-69
2022/11/22 06:38:39;;;;;;;12.70;5.55;;;6.10;99.90;;;;;;4991013;28;20034;-69
2022/11/22 06:41:09;;;;;;;21.00;6.03;;;6.10;99.90;;;;;;4992803;28;20050;-69
2022/11/22 06:43:36;;;;;;;14.25;5.57;;;6.10;99.90;;;;;;4991969;28;20481;-69
2022/11/22 06:46:03;;;;;;;12.30;5.50;;;6.10;99.90;;;;;;4992261;28;20042;-69
2022/11/22 06:48:30;;;;;;;13.35;5.40;;;6.10;99.90;;;;;;4993334;28;20041;-69
2022/11/22 06:51:05;;;;;;;21.33;5.70;;;6.10;99.90;;;;;;4993903;28;20030;-69
2022/11/22 06:53:33;;;;;;;15.73;5.43;;;6.10;99.90;;;;;;4991450;28;20022;-69
2022/11/22 06:56:10;;;;;;;12.02;4.63;;;6.10;99.90;;;;;;4992640;28;20394;-70
2022/11/22 06:58:35;;;;;;;14.88;4.90;;;6.10;99.90;;;;;;4989020;28;20110;-69
2022/11/22 07:01:13;;;;;;;13.65;4.78;;;6.10;99.90;;;;;;4991018;28;20479;-69
2022/11/22 07:03:40;;;;;;;14.68;4.90;;;6.10;99.90;;;;;;4991322;28;20042;-69
2022/11/22 07:06:07;;;;;;;14.05;5.55;;;6.10;99.90;;;;;;4991204;28;20034;-70
2022/11/22 07:08:33;;;;;;;16.35;5.68;;;6.20;99.90;;;;;;4990807;28;20461;-69
2022/11/22 07:11:03;;;;;;;15.18;5.85;;;6.20;99.90;;;;;;4991353;28;20069;-69
2022/11/22 07:13:29;;;;;;;12.15;5.32;;;6.20;99.90;;;;;;4990619;28;20052;-69
2022/11/22 07:16:00;;;;;;;19.27;6.22;;;6.20;99.90;;;;;;4990654;28;20510;-69
2022/11/22 07:18:26;;;;;;;14.85;5.55;;;6.20;99.90;;;;;;4989622;28;20038;-69
2022/11/22 07:20:52;;;;;;;11.93;5.43;;;6.20;99.90;;;;;;4989513;28;20045;-69
2022/11/22 07:23:18;;;;;;;15.70;5.68;;;6.20;99.90;;;;;;4991873;28;20030;-69
2022/11/22 07:25:45;;;;;;;13.18;5.28;;;6.20;99.90;;;;;;4990089;28;20049;-69
2022/11/22 07:28:12;;;;;;;11.73;5.47;;;6.30;99.90;;;;;;4979984;28;20470;-70
2022/11/22 07:30:38;;;;;;;14.85;5.57;;;6.30;99.90;;;;;;4991651;28;20157;-69
2022/11/22 07:33:03;;;;;;;10.50;5.30;;;6.30;99.90;;;;;;4991579;28;20022;-68
2022/11/22 07:35:29;;;;;;;10.68;5.55;;;6.30;99.90;;;;;;4991510;28;20053;-69
2022/11/22 07:37:54;;;;;;;16.90;5.85;;;6.30;99.90;;;;;;4991733;28;20050;-68
2022/11/22 07:40:20;;;;;;;11.70;5.95;;;6.30;99.90;;;;;;4991066;28;20030;-69
2022/11/22 07:42:46;;;;;;;12.93;5.97;;;6.30;99.90;;;;;;4991387;28;20026;-69
2022/11/22 07:45:11;;;;;;;14.45;5.95;;;6.30;99.90;;;;;;4991383;28;20049;-69
2022/11/22 07:47:37;;;;;;;14.43;5.78;;;6.30;99.90;;;;;;4991156;28;20407;-69
2022/11/22 07:50:03;;;;;;;11.65;5.43;;;6.30;99.90;;;;;;4991448;28;20073;-69
2022/11/22 07:52:28;;;;;;;15.90;5.57;;;6.30;99.90;;;;;;4989488;28;20519;-69
2022/11/22 07:54:54;;;;;;;13.35;5.50;;;6.30;99.90;;;;;;4991432;28;20436;-69
2022/11/22 07:57:19;;;;;;;11.38;5.28;;;6.30;99.90;;;;;;4991206;28;20039;-70
2022/11/22 07:59:45;;;;;;;13.38;4.80;;;6.30;99.90;;;;;;4991064;28;20053;-69
2022/11/22 08:02:11;;;;;;;13.80;4.45;;;6.30;99.90;;;;;;4991008;28;20030;-70
2022/11/22 08:04:36;;;;;;;8.98;4.43;;;6.30;99.90;;;;;;4991179;28;20082;-69
2022/11/22 08:07:02;;;;;;;12.60;3.95;;;6.30;99.90;;;;;;4981248;28;20022;-69
2022/11/22 08:09:28;;;;;;;10.70;4.03;;;6.30;99.90;;;;;;4990965;28;20034;-69
2022/11/22 08:11:53;;;;;;;12.00;3.33;;;6.30;99.90;;;;;;4990666;28;20035;-69
2022/11/22 08:14:19;;;;;;;11.02;4.00;;;6.30;99.90;;;;;;4989744;28;20042;-69
2022/11/22 08:16:45;;;;;;;16.92;3.75;;;6.30;99.90;;;;;;4990655;28;20049;-71
2022/11/22 08:19:14;;;;;;;11.32;4.05;;;6.30;99.90;;;;;;4990759;28;20034;-68
2022/11/22 08:21:40;;;;;;;9.18;3.80;;;6.40;99.90;;;;;;4991225;28;20042;-69
2022/11/22 08:24:06;;;;;;;14.82;3.60;;;6.40;99.90;;;;;;4990828;28;20125;-69
2022/11/22 08:26:33;;;;;;;10.68;4.20;;;6.40;99.90;;;;;;4989595;28;20029;-69
2022/11/22 08:28:59;;;;;;;12.98;4.55;;;6.40;99.90;;;;;;4990879;28;20611;-70
2022/11/22 08:31:26;;;;;;;11.45;4.63;;;6.50;99.90;;;;;;4990279;28;20179;-70
2022/11/22 08:33:52;;;;;;;9.80;4.50;;;6.50;99.90;;;;;;4990743;28;20030;-70
2022/11/22 08:36:18;;;;;;;10.50;4.85;;;6.50;99.90;;;;;;4993324;28;20073;-70
2022/11/22 08:38:43;;;;;;;11.45;4.40;;;6.60;99.90;;;;;;4990627;28;20061;-69
2022/11/22 08:41:09;;;;;;;7.50;3.97;;;6.60;99.90;;;;;;4990565;28;20022;-70
2022/11/22 08:43:35;;;;;;;10.02;4.20;;;6.60;99.90;;;;;;4990366;28;20022;-73
2022/11/22 08:46:02;;;;;;;12.05;4.30;;;6.60;99.90;;;;;;4990947;28;20054;-70
2022/11/22 08:48:29;;;;;;;11.88;4.10;;;6.60;99.90;;;;;;4990917;28;20112;-70
2022/11/22 08:50:57;;;;;;;12.25;4.30;;;6.60;99.90;;;;;;4990637;28;20019;-70
2022/11/22 08:53:24;;;;;;;13.35;4.45;;;6.60;99.90;;;;;;4993053;28;20078;-70
2022/11/22 08:55:50;;;;;;;14.15;4.47;;;6.60;99.90;;;;;;4994493;28;20037;-70
2022/11/22 08:58:16;;;;;;;14.75;4.50;;;6.60;99.90;;;;;;4992917;28;20052;-70
2022/11/22 09:00:42;;;;;;;10.10;4.40;;;6.60;99.90;;;;;;4993976;28;20478;-69
2022/11/22 09:03:07;;;;;;;11.98;3.90;;;6.60;99.90;;;;;;4992901;28;21176;-70
2022/11/22 09:05:33;;;;;;;12.30;4.15;;;6.60;99.90;;;;;;4988718;28;20019;-70
2022/11/22 09:07:58;;;;;;;12.40;4.13;;;6.60;99.90;;;;;;4994375;28;20390;-70
2022/11/22 09:10:24;;;;;;;11.20;4.45;;;6.60;99.90;;;;;;4994459;28;20030;-69
2022/11/22 09:12:50;;;;;;;12.20;4.57;;;6.70;99.90;;;;;;4994109;28;20480;-70
2022/11/22 09:15:16;;;;;;;11.82;4.45;;;6.70;99.90;;;;;;4984181;28;20039;-70
2022/11/22 09:17:42;;;;;;;8.52;4.30;;;6.70;99.90;;;;;;4979914;28;20370;-70
2022/11/22 09:20:09;;;;;;;13.18;4.50;;;6.70;99.90;;;;;;4994063;28;20498;-70
2022/11/22 09:22:35;;;;;;;15.70;4.93;;;6.70;99.90;;;;;;4994098;28;20026;-69
2022/11/22 09:25:02;;;;;;;11.57;4.28;;;6.70;99.90;;;;;;4988253;28;20548;-70
2022/11/22 09:27:27;;;;;;;9.80;4.43;;;6.70;99.90;;;;;;4993613;28;20080;-70
2022/11/22 09:29:53;;;;;;;12.10;4.40;;;6.70;99.90;;;;;;4987567;28;20022;-70
2022/11/22 09:32:18;;;;;;;17.10;5.10;;;6.70;99.90;;;;;;4993167;28;20030;-70
2022/11/22 09:34:44;;;;;;;17.67;4.90;;;6.80;99.90;;;;;;4994131;28;20375;-71
2022/11/22 09:37:10;;;;;;;16.10;5.15;;;6.80;99.90;;;;;;4993480;28;20386;-70
2022/11/22 09:39:35;;;;;;;10.55;4.47;;;6.80;99.90;;;;;;4993684;28;20015;-69
2022/11/22 09:42:39;;;;;;;16.15;4.75;;;6.80;99.90;;;;;;4990096;28;20030;-69
2022/11/22 09:45:49;;;;;;;11.23;4.90;;;6.80;99.90;;;;;;4958809;28;20075;-70
2022/11/22 09:48:51;;;;;;;13.32;5.10;;;6.90;99.90;;;;;;4967640;28;20182;-70
2022/11/22 09:51:24;;;;;;;11.63;4.38;;;6.90;99.90;;;;;;4968418;28;20035;-70
2022/11/22 09:54:00;;;;;;;11.25;4.57;;;6.90;99.90;;;;;;4969364;28;20459;-70
2022/11/22 09:56:28;;;;;;;10.82;4.13;;;7.00;99.90;;;;;;4971016;28;20042;-69
2022/11/22 09:58:59;;;;;;;9.95;4.30;;;7.00;99.90;;;;;;4969950;28;20411;-68
2022/11/22 10:01:41;;;;;;;10.23;4.30;;;7.00;99.90;;;;;;4960107;28;20590;-67
2022/11/22 10:04:13;;;;;;;12.77;4.13;;;7.10;99.90;;;;;;4960424;28;20023;-69
2022/11/22 10:06:41;;;;;;;11.10;4.03;;;7.10;99.90;;;;;;4971196;28;20034;-69
2022/11/22 10:09:38;;;;;;;7.97;3.90;;;7.10;99.90;;;;;;4971000;28;20114;-67
2022/11/22 10:12:10;;;;;;;13.73;4.20;;;7.10;99.90;;;;;;4970803;28;20077;-68
2022/11/22 10:15:03;;;;;;;15.73;3.75;;;7.10;99.90;;;;;;4964510;28;20045;-68
2022/11/22 10:17:47;;;;;;;12.13;4.03;;;7.10;99.90;;;;;;4969097;28;20517;-68
2022/11/22 10:20:18;;;;;;;18.35;4.40;;;7.10;99.90;;;;;;4981226;28;20053;-68
2022/11/22 10:22:43;;;;;;;10.25;3.50;;;7.10;99.90;;;;;;4978939;28;20356;-70
2022/11/22 10:25:21;;;;;;;11.60;3.88;;;7.10;99.90;;;;;;4988742;28;20033;-70
2022/11/22 10:27:52;;;;;;;9.57;3.70;;;7.10;99.90;;;;;;4990938;28;20041;-70
2022/11/22 10:30:19;;;;;;;8.88;3.72;;;7.20;99.90;;;;;;4991688;28;20030;-71
2022/11/22 10:33:23;;;;;;;12.48;3.70;;;7.20;99.90;;;;;;4992662;28;20018;-71
2022/11/22 10:36:03;;;;;;;13.65;3.80;;;7.20;99.90;;;;;;4982203;28;20035;-70
2022/11/22 10:38:55;;;;;;;9.60;3.75;;;7.20;99.90;;;;;;4977136;28;20035;-70
2022/11/22 10:41:33;;;;;;;9.35;3.60;;;7.20;99.90;;;;;;4979363;28;20030;-70
2022/11/22 10:44:30;;;;;;;10.38;3.38;;;7.30;99.90;;;;;;4984620;28;20109;-70
2022/11/22 10:47:18;;;;;;;7.63;3.08;;;7.30;99.90;;;;;;4970986;28;20058;-71
2022/11/22 10:49:44;;;;;;;8.32;3.30;;;7.30;99.90;;;;;;4988936;28;20148;-71
2022/11/22 10:52:27;;;;;;;10.27;3.88;;;7.30;99.90;;;;;;4992305;28;20101;-71
2022/11/22 10:55:10;;;;;;;8.48;3.33;;;7.30;99.90;;;;;;4992093;28;20060;-70
2022/11/22 10:57:57;;;;;;;11.20;3.67;;;7.40;99.90;;;;;;4990911;28;20054;-70
2022/11/22 11:00:24;;;;;;;7.95;3.45;;;7.40;99.90;;;;;;4990409;28;20468;-70
2022/11/22 11:03:09;;;;;;;10.88;3.70;;;7.40;99.90;;;;;;4991777;28;20024;-70
2022/11/22 11:05:45;;;;;;;8.48;3.30;;;7.40;99.90;;;;;;4991921;28;20043;-71
2022/11/22 11:08:16;;;;;;;7.60;3.10;;;7.50;99.90;;;;;;4991540;28;20030;-70
2022/11/22 11:10:44;;;;;;;12.20;3.20;;;7.50;99.90;;;;;;4991577;28;20391;-72
2022/11/22 11:13:26;;;;;;;12.18;3.97;;;7.50;99.90;;;;;;4991410;28;20398;-70
2022/11/22 11:15:56;;;;;;;7.28;2.70;;;7.60;99.90;;;;;;4991072;28;20027;-72
2022/11/22 11:18:37;;;;;;;9.75;2.85;;;7.60;99.90;;;;;;4987794;28;20093;-70
2022/11/22 11:21:05;;;;;;;9.23;2.83;;;7.60;99.90;;;;;;4990076;28;20101;-69
2022/11/22 11:23:31;;;;;;;9.63;3.05;;;7.60;99.90;;;;;;4991798;28;20061;-70
2022/11/22 11:26:24;;;;;;;10.13;3.28;;;7.60;99.90;;;;;;4992175;28;20057;-71
2022/11/22 11:28:50;;;;;;;6.53;3.30;;;7.60;99.90;;;;;;4990212;28;20085;-70
2022/11/22 11:31:20;;;;;;;9.00;2.42;;;7.60;99.90;;;;;;4991868;28;20022;-70
2022/11/22 11:33:46;;;;;;;8.23;3.20;;;7.70;99.90;;;;;;4991770;28;20038;-70
2022/11/22 11:36:22;;;;;;;8.00;3.15;;;7.70;99.90;;;;;;4991475;28;20106;-70
2022/11/22 11:38:52;;;;;;;6.68;2.92;;;7.70;99.90;;;;;;4991203;28;20085;-70
2022/11/22 11:41:24;;;;;;;11.48;3.58;;;7.80;99.90;;;;;;4991523;28;20106;-69
2022/11/22 11:43:52;;;;;;;11.40;3.65;;;7.80;99.90;;;;;;4991317;28;20026;-70
2022/11/22 11:46:26;;;;;;;10.27;3.45;;;7.90;99.90;;;;;;4991148;28;20402;-70
2022/11/22 11:49:13;;;;;;;10.15;3.10;;;7.90;99.90;;;;;;4983449;28;20022;-70
2022/11/22 11:51:40;;;;;;;6.38;3.03;;;8.00;99.90;;;;;;4990578;28;20034;-69
2022/11/22 11:54:12;;;;;;;9.05;2.90;;;8.00;99.90;;;;;;4990573;28;20060;-70
2022/11/22 11:56:57;;;;;;;8.20;3.10;;;7.90;99.90;;;;;;4991307;28;20046;-70
2022/11/22 11:59:37;;;;;;;9.95;3.38;;;8.00;99.90;;;;;;4990897;28;20034;-71
2022/11/22 12:02:11;;;;;;;7.07;3.10;;;8.00;99.90;;;;;;4987340;28;20030;-70
2022/11/22 12:04:49;;;;;;;6.68;2.90;;;8.00;99.90;;;;;;4990366;28;20112;-69
2022/11/22 12:07:20;;;;;;;6.07;2.83;;;8.00;99.90;;;;;;4987879;28;20022;-70
2022/11/22 12:09:48;;;;;;;7.97;3.10;;;8.00;99.90;;;;;;4981347;28;20112;-68
2022/11/22 12:12:19;;;;;;;6.85;3.13;;;8.10;99.90;;;;;;4985512;28;20020;-69
2022/11/22 12:14:51;;;;;;;8.15;2.90;;;8.10;99.90;;;;;;4989964;28;20544;-69
2022/11/22 12:17:29;;;;;;;5.72;3.47;;;8.10;99.90;;;;;;4990963;28;20066;-69
2022/11/22 12:20:04;;;;;;;8.10;3.20;;;8.10;99.90;;;;;;4990879;28;20041;-69
2022/11/22 12:22:44;;;;;;;13.97;3.97;;;8.10;99.90;;;;;;4987586;28;20038;-69
2022/11/22 12:25:38;;;;;;;8.02;3.55;;;8.10;99.90;;;;;;4980676;28;20128;-68
2022/11/22 12:28:19;;;;;;;9.60;3.25;;;8.10;99.90;;;;;;4981776;28;20023;-69
2022/11/22 12:31:06;;;;;;;6.65;3.47;;;8.10;99.90;;;;;;4986089;28;20023;-69
2022/11/22 12:33:40;;;;;;;8.35;3.38;;;8.10;99.90;;;;;;4987998;28;20477;-69
2022/11/22 12:36:36;;;;;;;7.03;3.40;;;8.20;99.90;;;;;;4989183;28;20033;-69
2022/11/22 12:39:03;;;;;;;;;;;8.10;99.90;;;;;;4967616;28;20917;-68
2022/11/22 12:41:32;;;;;;;11.25;3.30;;;8.20;99.90;;;;;;4990243;28;19914;-69
2022/11/22 12:44:03;;;;;;;6.13;3.05;;;8.10;99.90;;;;;;4990135;28;20038;-68
2022/11/22 12:46:40;;;;;;;11.10;2.90;;;8.10;99.90;;;;;;4988114;28;20081;-68
2022/11/22 12:49:11;;;;;;;7.53;3.47;;;8.20;99.90;;;;;;4990997;28;20018;-68
2022/11/22 12:51:52;;;;;;;9.13;3.00;;;8.20;99.90;;;;;;4989816;28;20026;-69
2022/11/22 12:54:34;;;;;;;8.80;3.20;;;8.20;99.90;;;;;;4988606;28;20423;-68
2022/11/22 12:57:09;;;;;;;6.60;2.90;;;8.20;99.90;;;;;;4990688;28;20014;-68
2022/11/22 12:59:40;;;;;;;;;;;8.10;99.90;;;;;;4983837;28;20035;-68
2022/11/22 13:02:29;;;;;;;6.57;3.30;;;8.20;99.90;;;;;;4990312;28;19992;-69
2022/11/22 13:05:04;;;;;;;7.13;3.40;;;8.20;99.90;;;;;;4990486;28;20040;-68
2022/11/22 13:08:11;;;;;;;10.35;3.58;;;8.20;99.90;;;;;;4990587;28;20023;-69
2022/11/22 13:10:46;;;;;;;8.00;3.45;;;8.20;99.90;;;;;;4979018;28;20128;-68